Time;durP1;ratioP1;P1;durP2;ratioP2;P2;SDS_P1;SDS_P2;PMS_P1;PMS_P2;Temp;Humidity;BMP_temperature;BMP_pressure;BME280_temperature;BME280_humidity;BME280_pressure;Samples;Min_cycle;Max_cycle;Signal;HPM_P1;HPM_P2
2021/01/11 00:00:31;;;;;;;62.17;29.25;;;;;;;-0.53;100.00;101694.75;5043969;28;20064;-59
2021/01/11 00:02:59;;;;;;;62.03;28.90;;;;;;;-0.42;100.00;101696.88;5042388;28;20175;-59
2021/01/11 00:05:27;;;;;;;60.13;28.90;;;;;;;-0.41;100.00;101706.47;5043398;28;20049;-60
2021/01/11 00:07:54;;;;;;;65.00;29.83;;;;;;;-0.42;100.00;101702.13;5044847;28;20061;-58
2021/01/11 00:10:21;;;;;;;61.03;30.00;;;;;;;-0.52;100.00;101703.47;5044405;28;20037;-58
2021/01/11 00:12:48;;;;;;;60.88;29.83;;;;;;;-0.52;100.00;101695.59;5044554;28;20045;-58
2021/01/11 00:15:15;;;;;;;61.58;29.33;;;;;;;-0.36;100.00;101686.09;5046180;28;20340;-57
2021/01/11 00:17:43;;;;;;;53.85;29.08;;;;;;;-0.36;100.00;101687.88;5045560;28;20045;-57
2021/01/11 00:20:11;;;;;;;55.15;28.15;;;;;;;-0.24;100.00;101683.81;5041807;28;20448;-58
2021/01/11 00:22:38;;;;;;;57.35;27.92;;;;;;;-0.13;100.00;101680.69;5041637;28;20049;-57
2021/01/11 00:25:06;;;;;;;58.13;29.30;;;;;;;-0.10;100.00;101678.78;5044136;28;20045;-57
2021/01/11 00:27:33;;;;;;;61.03;31.13;;;;;;;-0.04;100.00;101681.13;5044983;28;20322;-57
2021/01/11 00:30:01;;;;;;;66.07;31.35;;;;;;;0.02;100.00;101676.50;5044369;28;20105;-56
2021/01/11 00:32:28;;;;;;;57.95;29.35;;;;;;;-0.02;100.00;101674.00;5039419;28;20041;-57
2021/01/11 00:34:55;;;;;;;54.20;27.95;;;;;;;-0.06;100.00;101682.09;5044736;28;20119;-57
2021/01/11 00:37:22;;;;;;;65.03;29.60;;;;;;;-0.10;100.00;101675.28;5038995;28;20056;-58
2021/01/11 00:39:49;;;;;;;59.70;30.08;;;;;;;-0.01;100.00;101667.84;5040368;28;20364;-57
2021/01/11 00:42:18;;;;;;;59.83;29.27;;;;;;;-0.12;100.00;101658.78;5042399;28;20049;-56
2021/01/11 00:44:45;;;;;;;61.58;29.27;;;;;;;-0.11;100.00;101663.94;5042129;28;20048;-57
2021/01/11 00:47:12;;;;;;;69.40;30.52;;;;;;;-0.12;100.00;101654.38;5043646;28;20059;-57
2021/01/11 00:49:40;;;;;;;58.70;28.45;;;;;;;-0.06;100.00;101661.09;5045333;28;20041;-57
2021/01/11 00:52:07;;;;;;;57.20;27.60;;;;;;;-0.09;100.00;101651.59;5041659;28;20049;-56
2021/01/11 00:54:34;;;;;;;66.72;28.92;;;;;;;-0.04;100.00;101654.00;5042067;28;20060;-54
2021/01/11 00:57:03;;;;;;;65.38;30.63;;;;;;;-0.06;100.00;101661.09;5045667;28;20131;-56
2021/01/11 00:59:30;;;;;;;58.50;31.50;;;;;;;0.04;100.00;101651.84;5042086;28;20036;-56
2021/01/11 01:01:57;;;;;;;56.03;28.65;;;;;;;0.23;100.00;101653.56;5044890;28;20064;-55
2021/01/11 01:04:24;;;;;;;64.95;30.52;;;;;;;0.09;100.00;101654.28;5025413;28;20122;-56
2021/01/11 01:06:51;;;;;;;52.05;27.80;;;;;;;0.11;100.00;101648.00;5045536;28;20337;-56
2021/01/11 01:09:18;;;;;;;52.60;27.65;;;;;;;0.07;100.00;101645.59;5045082;28;20045;-55
2021/01/11 01:11:45;;;;;;;56.03;27.65;;;;;;;0.05;100.00;101647.47;5044495;28;20101;-56
2021/01/11 01:14:12;;;;;;;52.40;29.45;;;;;;;0.18;100.00;101645.91;5041681;28;20045;-54
2021/01/11 01:16:39;;;;;;;57.72;28.55;;;;;;;0.11;100.00;101641.91;5045151;28;20049;-54
2021/01/11 01:19:06;;;;;;;54.45;27.98;;;;;;;0.10;100.00;101640.19;5047505;28;20045;-56
2021/01/11 01:21:33;;;;;;;49.30;24.83;;;;;;;0.22;100.00;101639.59;5041420;28;20062;-56
2021/01/11 01:24:00;;;;;;;50.97;25.95;;;;;;;0.28;100.00;101639.28;5041866;28;20075;-55
2021/01/11 01:26:27;;;;;;;49.22;25.08;;;;;;;0.35;100.00;101639.81;5046797;28;20064;-55
2021/01/11 01:29:00;;;;;;;48.33;24.98;;;;;;;0.47;100.00;101641.84;5040469;28;20049;-55
2021/01/11 01:31:27;;;;;;;43.92;23.55;;;;;;;0.56;100.00;101640.53;5046803;28;20045;-54
2021/01/11 01:33:54;;;;;;;48.20;23.92;;;;;;;0.58;100.00;101635.19;5039528;28;20294;-53
2021/01/11 01:36:21;;;;;;;47.13;25.58;;;;;;;0.54;100.00;101629.25;5043610;28;20055;-55
2021/01/11 01:38:48;;;;;;;45.00;23.58;;;;;;;0.55;100.00;101624.84;5042061;28;20060;-54
2021/01/11 01:41:15;;;;;;;46.85;25.48;;;;;;;0.55;100.00;101623.03;5044039;28;20049;-54
2021/01/11 01:43:42;;;;;;;47.05;23.30;;;;;;;0.52;100.00;101620.59;5042387;28;20396;-54
2021/01/11 01:46:13;;;;;;;48.53;24.45;;;;;;;0.47;100.00;101620.81;5046920;28;20041;-55
2021/01/11 01:48:42;;;;;;;48.70;25.42;;;;;;;0.39;100.00;101636.13;5041574;28;20095;-55
2021/01/11 01:51:10;;;;;;;51.97;24.63;;;;;;;0.34;100.00;101644.25;5042107;28;20061;-54
2021/01/11 01:53:37;;;;;;;48.80;26.35;;;;;;;0.34;100.00;101660.00;5041037;28;20133;-54
2021/01/11 01:56:05;;;;;;;54.97;27.80;;;;;;;0.46;100.00;101657.69;5041791;28;20056;-56
2021/01/11 01:58:33;;;;;;;39.22;22.00;;;;;;;0.60;100.00;101655.22;5046292;28;20070;-55
2021/01/11 02:01:03;;;;;;;39.65;21.90;;;;;;;0.48;100.00;101658.47;5041466;28;20298;-53
2021/01/11 02:03:31;;;;;;;55.83;25.52;;;;;;;0.51;100.00;101647.78;5042554;28;20374;-55
2021/01/11 02:05:59;;;;;;;44.22;23.73;;;;;;;0.50;100.00;101641.69;5040194;28;20053;-56
2021/01/11 02:08:33;;;;;;;45.97;21.83;;;;;;;0.46;100.00;101636.69;5041691;28;20072;-56
2021/01/11 02:11:10;;;;;;;42.97;22.23;;;;;;;0.44;100.00;101628.00;5044410;28;20128;-56
2021/01/11 02:13:48;;;;;;;52.38;25.55;;;;;;;0.44;100.00;101633.25;5039180;28;20072;-55
2021/01/11 02:16:20;;;;;;;53.08;26.20;;;;;;;0.41;100.00;101642.16;5040575;28;20449;-54
2021/01/11 02:18:55;;;;;;;49.45;25.52;;;;;;;0.30;100.00;101658.47;5041706;28;20041;-56
2021/01/11 02:21:49;;;;;;;42.53;22.50;;;;;;;0.31;100.00;101654.91;5040309;28;20122;-56
2021/01/11 02:24:34;;;;;;;50.50;26.38;;;;;;;0.25;100.00;101652.56;5034061;28;20048;-56
2021/01/11 02:27:20;;;;;;;45.38;24.60;;;;;;;0.23;100.00;101654.44;5043397;28;20037;-56
2021/01/11 02:30:12;;;;;;;50.00;24.08;;;;;;;0.36;100.00;101651.22;5043822;28;20325;-54
2021/01/11 02:32:46;;;;;;;43.47;23.15;;;;;;;0.30;100.00;101639.22;5039333;28;20053;-54
2021/01/11 02:35:16;;;;;;;47.40;24.48;;;;;;;0.30;100.00;101636.59;5042477;28;20170;-54
2021/01/11 02:37:43;;;;;;;48.42;25.15;;;;;;;0.34;100.00;101646.88;5044463;28;20068;-55
2021/01/11 02:40:11;;;;;;;44.83;22.92;;;;;;;0.34;100.00;101643.38;5042861;28;20037;-56
2021/01/11 02:42:38;;;;;;;52.03;24.23;;;;;;;0.31;100.00;101639.16;5035856;28;20048;-56
2021/01/11 02:45:08;;;;;;;43.30;23.83;;;;;;;0.36;100.00;101638.06;5040640;28;20048;-55
2021/01/11 02:47:49;;;;;;;43.53;23.15;;;;;;;0.46;100.00;101637.50;5043257;28;20110;-50
2021/01/11 02:50:20;;;;;;;44.38;23.15;;;;;;;0.49;100.00;101645.25;5042231;28;20029;-55
2021/01/11 02:52:54;;;;;;;41.80;23.13;;;;;;;0.57;100.00;101639.59;5039750;28;20041;-55
2021/01/11 02:55:26;;;;;;;48.72;22.27;;;;;;;0.59;100.00;101629.00;5044985;28;20045;-55
2021/01/11 02:57:59;;;;;;;45.67;21.83;;;;;;;0.64;100.00;101619.13;5038457;28;20052;-55
2021/01/11 03:00:28;;;;;;;39.05;20.80;;;;;;;0.58;100.00;101628.16;5043782;28;20425;-57
2021/01/11 03:02:58;;;;;;;35.55;20.10;;;;;;;0.62;100.00;101627.06;5040470;28;20474;-55
2021/01/11 03:05:25;;;;;;;35.47;19.65;;;;;;;0.60;100.00;101618.41;5042907;28;20041;-56
2021/01/11 03:07:55;;;;;;;40.13;22.08;;;;;;;0.53;100.00;101616.19;5040648;28;20044;-56
2021/01/11 03:10:22;;;;;;;38.05;20.33;;;;;;;0.66;100.00;101606.72;5040438;28;20045;-56
2021/01/11 03:12:50;;;;;;;44.13;19.90;;;;;;;0.58;100.00;101609.78;5041183;28;20037;-55
2021/01/11 03:15:17;;;;;;;43.05;21.52;;;;;;;0.73;100.00;101615.16;5028353;28;20052;-53
2021/01/11 03:17:44;;;;;;;40.30;19.92;;;;;;;0.65;100.00;101613.78;5049231;28;20049;-57
2021/01/11 03:20:13;;;;;;;38.17;20.42;;;;;;;0.70;100.00;101612.69;5045457;28;20041;-54
2021/01/11 03:22:40;;;;;;;42.90;21.50;;;;;;;0.65;100.00;101608.53;5044547;28;20044;-57
2021/01/11 03:25:09;;;;;;;37.40;20.30;;;;;;;0.65;100.00;101603.25;5042309;28;20045;-55
2021/01/11 03:27:36;;;;;;;39.17;20.10;;;;;;;0.74;100.00;101614.22;5045830;28;20068;-53
2021/01/11 03:30:05;;;;;;;34.33;19.20;;;;;;;0.78;100.00;101610.50;5046095;28;20083;-56
2021/01/11 03:32:32;;;;;;;33.80;18.85;;;;;;;0.79;100.00;101599.88;5045218;28;20053;-56
2021/01/11 03:34:59;;;;;;;41.45;20.00;;;;;;;0.79;100.00;101599.88;5044733;28;20049;-52
2021/01/11 03:37:26;;;;;;;40.40;20.30;;;;;;;0.65;100.00;101598.00;5047443;28;20045;-58
2021/01/11 03:39:53;;;;;;;34.88;18.13;;;;;;;0.75;100.00;101597.50;5045446;28;20329;-54
2021/01/11 03:42:20;;;;;;;37.00;19.98;;;;;;;0.80;100.00;101593.72;5042736;28;20049;-56
2021/01/11 03:44:48;;;;;;;29.98;15.95;;;;;;;0.80;100.00;101583.19;5046522;28;20444;-55
2021/01/11 03:47:15;;;;;;;32.47;17.48;;;;;;;0.89;100.00;101581.00;5044371;28;20076;-53
2021/01/11 03:49:42;;;;;;;34.42;17.23;;;;;;;0.92;100.00;101586.09;5047594;28;20072;-55
2021/01/11 03:52:09;;;;;;;32.55;17.25;;;;;;;0.81;100.00;101571.75;5044414;28;20468;-55
2021/01/11 03:54:37;;;;;;;29.35;16.95;;;;;;;0.89;100.00;101578.38;5046917;28;20443;-55
2021/01/11 03:57:07;;;;;;;33.85;16.95;;;;;;;0.94;100.00;101571.94;5046051;28;20045;-53
2021/01/11 03:59:34;;;;;;;29.48;14.68;;;;;;;0.98;100.00;101562.13;5045148;28;20049;-52
2021/01/11 04:02:01;;;;;;;26.40;15.98;;;;;;;0.95;100.00;101565.75;5046293;28;20045;-55
2021/01/11 04:04:28;;;;;;;30.60;17.27;;;;;;;0.96;100.00;101562.16;5041007;28;20483;-54
2021/01/11 04:06:55;;;;;;;31.80;17.02;;;;;;;1.03;100.00;101567.97;5048496;28;20041;-55
2021/01/11 04:09:22;;;;;;;35.58;16.23;;;;;;;1.02;100.00;101569.75;5042836;28;20332;-52
2021/01/11 04:11:50;;;;;;;36.25;18.67;;;;;;;0.94;100.00;101564.06;5044406;28;20033;-55
2021/01/11 04:14:17;;;;;;;32.92;17.20;;;;;;;0.99;100.00;101567.28;5047377;28;20059;-56
2021/01/11 04:19:14;;;;;;;31.15;16.20;;;;;;;0.96;100.00;101577.13;4981709;28;20425;-52
2021/01/11 04:21:41;;;;;;;35.03;17.08;;;;;;;1.02;100.00;101568.88;4983970;28;20358;-52
2021/01/11 04:24:09;;;;;;;30.45;16.10;;;;;;;1.03;100.00;101563.56;4988346;28;20072;-54
2021/01/11 04:26:36;;;;;;;28.73;16.05;;;;;;;1.01;100.00;101562.78;4986961;28;20054;-53
2021/01/11 04:29:03;;;;;;;26.30;15.55;;;;;;;1.03;100.00;101560.94;4988757;28;20050;-53
2021/01/11 04:31:35;;;;;;;28.05;16.27;;;;;;;1.04;100.00;101556.50;4986007;28;20317;-51
2021/01/11 04:34:02;;;;;;;27.20;14.38;;;;;;;1.06;100.00;101561.69;4989001;28;20473;-52
2021/01/11 04:36:32;;;;;;;27.45;15.73;;;;;;;1.11;100.00;101567.56;4989596;28;20061;-51
2021/01/11 04:38:59;;;;;;;23.75;13.27;;;;;;;1.06;100.00;101566.94;4984748;28;20042;-51
2021/01/11 04:41:29;;;;;;;22.58;12.52;;;;;;;1.07;100.00;101568.66;4987071;28;20298;-49
2021/01/11 04:43:58;;;;;;;26.08;13.43;;;;;;;0.99;100.00;101567.28;4981924;28;20046;-49
2021/01/11 04:46:26;;;;;;;24.60;13.95;;;;;;;1.06;100.00;101565.16;4988837;28;20121;-52
2021/01/11 04:48:53;;;;;;;23.85;13.63;;;;;;;0.98;100.00;101568.22;4986259;28;20092;-53
2021/01/11 04:51:20;;;;;;;27.08;14.80;;;;;;;0.97;100.00;101566.50;4987565;28;20061;-48
2021/01/11 04:53:47;;;;;;;22.73;12.55;;;;;;;1.05;100.00;101565.25;4988669;28;20397;-52
2021/01/11 04:56:15;;;;;;;24.35;13.70;;;;;;;1.05;100.00;101562.63;4985646;28;20307;-53
2021/01/11 04:58:54;;;;;;;27.25;14.18;;;;;;;0.98;100.00;101555.06;4988458;28;20133;-49
2021/01/11 05:01:25;;;;;;;27.08;14.02;;;;;;;0.95;100.00;101559.63;4985778;28;20034;-51
2021/01/11 05:03:57;;;;;;;26.13;13.60;;;;;;;1.01;100.00;101560.16;4989930;28;20438;-49
2021/01/11 05:06:24;;;;;;;28.73;14.55;;;;;;;1.05;100.00;101552.09;4987291;28;20084;-49
2021/01/11 05:08:51;;;;;;;27.70;14.48;;;;;;;1.07;100.00;101548.44;4986695;28;20043;-52
2021/01/11 05:11:18;;;;;;;25.67;13.80;;;;;;;1.03;100.00;101555.69;4988216;28;20405;-53
2021/01/11 05:13:50;;;;;;;26.60;13.75;;;;;;;1.05;100.00;101549.47;4989257;28;20749;-53
2021/01/11 05:16:22;;;;;;;28.77;15.05;;;;;;;1.07;100.00;101542.34;4988295;28;20049;-52
2021/01/11 05:18:53;;;;;;;28.02;13.35;;;;;;;1.13;100.00;101548.09;4985439;28;20042;-50
2021/01/11 05:21:40;;;;;;;24.92;13.05;;;;;;;1.13;100.00;101537.59;4988954;28;20042;-49
2021/01/11 05:24:28;;;;;;;21.80;12.95;;;;;;;1.16;100.00;101537.44;4983216;28;20118;-53
2021/01/11 05:26:57;;;;;;;29.77;12.93;;;;;;;1.18;100.00;101534.72;4990860;28;20047;-52
2021/01/11 05:29:24;;;;;;;27.42;12.85;;;;;;;1.15;100.00;101530.47;4983101;28;20126;-53
2021/01/11 05:31:53;;;;;;;25.67;13.52;;;;;;;1.24;100.00;101529.09;4987709;28;20300;-53
2021/01/11 05:34:20;;;;;;;22.67;13.15;;;;;;;1.20;100.00;101523.19;4987074;28;20050;-52
2021/01/11 05:36:48;;;;;;;23.55;13.00;;;;;;;1.23;100.00;101531.81;4987717;28;20045;-52
2021/01/11 05:39:15;;;;;;;24.45;11.88;;;;;;;1.25;100.00;101535.22;4989002;28;20039;-51
2021/01/11 05:41:44;;;;;;;25.27;14.13;;;;;;;1.23;100.00;101532.66;4985064;28;20430;-51
2021/01/11 05:44:14;;;;;;;24.02;13.27;;;;;;;1.18;100.00;101532.94;4985134;28;20057;-49
2021/01/11 05:46:45;;;;;;;29.70;12.75;;;;;;;1.23;100.00;101531.81;4987381;28;20034;-50
2021/01/11 05:49:13;;;;;;;21.27;12.25;;;;;;;1.21;100.00;101526.66;4981656;28;20097;-50
2021/01/11 05:51:40;;;;;;;21.20;12.55;;;;;;;1.23;100.00;101524.78;4985538;28;20061;-48
2021/01/11 05:54:25;;;;;;;25.38;13.48;;;;;;;1.27;100.00;101526.31;4987109;28;20038;-48
2021/01/11 05:56:54;;;;;;;25.42;12.40;;;;;;;1.23;100.00;101530.03;4983858;28;20287;-48
2021/01/11 05:59:21;;;;;;;22.70;12.63;;;;;;;1.16;100.00;101526.91;4987893;28;20045;-50
2021/01/11 06:01:48;;;;;;;25.00;13.00;;;;;;;1.15;100.00;101522.56;4986908;28;20061;-52
2021/01/11 06:04:15;;;;;;;22.08;13.10;;;;;;;1.24;100.00;101513.31;4981480;28;20066;-50
2021/01/11 06:06:45;;;;;;;25.50;13.70;;;;;;;1.22;100.00;101509.94;4987113;28;20057;-53
2021/01/11 06:09:13;;;;;;;26.92;12.95;;;;;;;1.11;100.00;101501.78;4985054;28;20046;-54
2021/01/11 06:11:42;;;;;;;26.73;12.90;;;;;;;1.16;100.00;101505.00;4984151;28;20042;-53
2021/01/11 06:14:11;;;;;;;28.23;13.60;;;;;;;1.16;100.00;101510.25;4984439;28;20478;-54
2021/01/11 06:16:40;;;;;;;26.42;14.23;;;;;;;1.24;100.00;101513.31;4983413;28;20042;-53
2021/01/11 06:19:10;;;;;;;25.73;13.77;;;;;;;1.18;100.00;101500.50;4983011;28;20125;-50
2021/01/11 06:21:37;;;;;;;26.67;14.30;;;;;;;1.22;100.00;101502.03;4982523;28;20043;-50
2021/01/11 06:24:14;;;;;;;28.45;14.27;;;;;;;1.17;100.00;101498.81;4986310;28;20429;-54
2021/01/11 06:26:42;;;;;;;34.72;15.20;;;;;;;1.26;100.00;101500.94;4985317;28;20334;-51
2021/01/11 06:29:28;;;;;;;30.13;14.93;;;;;;;1.15;100.00;101504.16;4981728;28;20338;-52
2021/01/11 06:31:57;;;;;;;28.67;14.98;;;;;;;1.18;100.00;101503.16;4984415;28;20046;-50
2021/01/11 06:34:35;;;;;;;32.28;15.00;;;;;;;1.15;100.00;101503.31;4979223;28;20523;-50
2021/01/11 06:37:02;;;;;;;29.10;14.57;;;;;;;1.24;100.00;101491.44;4986348;28;20038;-51
2021/01/11 06:39:33;;;;;;;27.38;14.50;;;;;;;1.20;100.00;101490.75;4982987;28;20050;-52
2021/01/11 06:42:10;;;;;;;26.35;13.73;;;;;;;1.13;100.00;101484.97;4984388;28;20050;-51
2021/01/11 06:44:39;;;;;;;29.60;14.70;;;;;;;1.15;100.00;101491.00;4986898;28;20042;-52
2021/01/11 06:47:08;;;;;;;28.63;15.60;;;;;;;1.22;100.00;101488.88;4982285;28;20318;-50
2021/01/11 06:49:36;;;;;;;32.83;14.57;;;;;;;1.13;100.00;101482.31;4985189;28;20035;-54
2021/01/11 06:52:09;;;;;;;32.25;14.65;;;;;;;1.16;100.00;101491.84;4985609;28;21000;-48
2021/01/11 06:54:45;;;;;;;24.95;13.00;;;;;;;1.23;100.00;101490.56;4983847;28;20056;-51
2021/01/11 06:57:16;;;;;;;26.88;13.60;;;;;;;1.15;100.00;101484.91;4969159;28;20054;-50
2021/01/11 06:59:46;;;;;;;27.95;14.43;;;;;;;1.23;100.00;101489.72;4984391;28;20314;-50
2021/01/11 07:02:21;;;;;;;28.92;15.85;;;;;;;1.14;100.00;101488.47;4983657;28;20053;-53
2021/01/11 07:04:48;;;;;;;24.30;13.27;;;;;;;1.13;100.00;101492.84;4987308;28;20085;-52
2021/01/11 07:07:23;;;;;;;26.02;14.95;;;;;;;1.22;100.00;101491.50;4984928;28;20062;-50
2021/01/11 07:09:51;;;;;;;27.42;13.40;;;;;;;1.36;100.00;101493.34;4987325;28;20123;-52
2021/01/11 07:12:20;;;;;;;28.73;13.90;;;;;;;1.32;100.00;101489.22;4992459;28;20053;-49
2021/01/11 07:14:54;;;;;;;28.67;15.18;;;;;;;1.19;100.00;101489.03;4989186;28;20292;-50
2021/01/11 07:17:35;;;;;;;26.35;15.35;;;;;;;1.24;100.00;101475.63;4989113;28;20434;-50
2021/01/11 07:20:03;;;;;;;28.60;16.38;;;;;;;1.34;100.00;101480.28;4986453;28;20117;-48
2021/01/11 07:22:30;;;;;;;33.00;16.30;;;;;;;1.33;100.00;101478.59;4987064;28;20582;-50
2021/01/11 07:24:57;;;;;;;27.27;14.98;;;;;;;1.33;100.00;101475.97;4993714;28;20035;-51
2021/01/11 07:27:25;;;;;;;27.67;15.77;;;;;;;1.23;100.00;101474.78;4987992;28;20046;-50
2021/01/11 07:29:57;;;;;;;29.17;15.13;;;;;;;1.32;100.00;101473.44;4989531;28;20096;-47
2021/01/11 07:32:23;;;;;;;31.90;16.75;;;;;;;1.24;100.00;101471.22;4987196;28;20509;-48
2021/01/11 07:34:50;;;;;;;30.75;17.05;;;;;;;1.22;100.00;101462.56;4988620;28;20050;-52
2021/01/11 07:37:17;;;;;;;28.67;16.10;;;;;;;1.30;100.00;101468.22;4988608;28;20039;-53
2021/01/11 07:39:44;;;;;;;30.20;15.38;;;;;;;1.21;100.00;101463.50;4982691;28;20520;-50
2021/01/11 07:42:11;;;;;;;28.48;17.20;;;;;;;1.21;100.00;101458.22;4989746;28;20053;-50
2021/01/11 07:44:41;;;;;;;26.45;14.90;;;;;;;1.22;100.00;101452.03;4987011;28;20045;-51
2021/01/11 07:47:10;;;;;;;26.75;15.25;;;;;;;1.30;100.00;101465.59;4982370;28;20046;-50
2021/01/11 07:49:38;;;;;;;31.60;14.77;;;;;;;1.34;100.00;101455.75;4986629;28;20124;-51
2021/01/11 07:52:07;;;;;;;27.65;14.25;;;;;;;1.34;100.00;101451.31;4984340;28;20922;-52
2021/01/11 07:54:35;;;;;;;27.23;16.60;;;;;;;1.30;100.00;101452.44;4981403;28;20060;-53
2021/01/11 07:57:03;;;;;;;31.65;14.60;;;;;;;1.38;100.00;101455.47;4986294;28;20048;-52
2021/01/11 07:59:30;;;;;;;30.70;15.27;;;;;;;1.25;100.00;101443.97;4985159;28;20334;-53
2021/01/11 08:01:58;;;;;;;27.83;14.60;;;;;;;1.35;100.00;101447.75;4986119;28;20050;-50
2021/01/11 08:04:25;;;;;;;28.38;18.15;;;;;;;1.33;100.00;101447.03;4985449;28;20035;-50
2021/01/11 08:06:54;;;;;;;27.85;15.98;;;;;;;1.34;100.00;101446.06;4988816;28;20049;-52
2021/01/11 08:09:24;;;;;;;24.55;14.40;;;;;;;1.38;100.00;101447.59;4982945;28;20046;-52
2021/01/11 08:12:04;;;;;;;28.67;16.08;;;;;;;1.34;100.00;101446.06;4988198;28;20054;-53
2021/01/11 08:14:31;;;;;;;30.05;15.90;;;;;;;1.41;100.00;101441.31;4979435;28;20043;-51
2021/01/11 08:16:59;;;;;;;28.02;16.58;;;;;;;1.46;100.00;101441.03;4984597;28;20038;-53
2021/01/11 08:19:27;;;;;;;33.72;16.90;;;;;;;1.47;100.00;101429.56;4985544;28;20142;-53
2021/01/11 08:21:58;;;;;;;30.08;15.82;;;;;;;1.55;100.00;101432.63;4983882;28;20038;-52
2021/01/11 08:24:26;;;;;;;32.10;16.48;;;;;;;1.47;100.00;101424.31;4978178;28;20030;-48
2021/01/11 08:27:02;;;;;;;29.48;15.45;;;;;;;1.64;100.00;101433.84;4984904;28;20129;-47
2021/01/11 08:29:31;;;;;;;25.27;16.15;;;;;;;1.57;100.00;101435.16;4983741;28;20042;-53
2021/01/11 08:31:59;;;;;;;28.88;17.35;;;;;;;1.62;100.00;101428.69;4984686;28;20047;-50
2021/01/11 08:34:26;;;;;;;31.08;16.42;;;;;;;1.64;100.00;101426.78;4983818;28;20038;-54
2021/01/11 08:36:53;;;;;;;28.30;15.02;;;;;;;1.66;100.00;101424.94;4984420;28;20453;-52
2021/01/11 08:39:20;;;;;;;27.88;15.60;;;;;;;1.66;100.00;101437.22;4984600;28;20050;-49
2021/01/11 08:41:48;;;;;;;26.38;15.57;;;;;;;1.68;100.00;101433.56;4981797;28;20051;-53
2021/01/11 08:44:32;;;;;;;25.55;14.77;;;;;;;1.71;100.00;101437.81;4983027;28;20039;-50
2021/01/11 08:47:01;;;;;;;27.80;16.52;;;;;;;1.82;100.00;101432.75;4985373;28;20046;-51
2021/01/11 08:49:29;;;;;;;28.67;16.00;;;;;;;1.79;100.00;101435.59;4981781;28;20326;-52
2021/01/11 08:52:07;;;;;;;28.15;16.30;;;;;;;1.88;100.00;101436.81;4982076;28;20350;-50
2021/01/11 08:54:34;;;;;;;28.55;15.98;;;;;;;1.81;100.00;101427.59;4987138;28;20429;-50
2021/01/11 08:57:10;;;;;;;29.10;16.05;;;;;;;1.95;100.00;101432.03;4986724;28;20053;-52
2021/01/11 08:59:37;;;;;;;24.83;15.18;;;;;;;1.83;100.00;101437.09;4987161;28;20050;-51
2021/01/11 09:02:05;;;;;;;32.33;15.60;;;;;;;1.75;100.00;101446.41;4985295;28;20124;-50
2021/01/11 09:04:34;;;;;;;27.00;14.63;;;;;;;1.79;100.00;101440.84;4986572;28;20361;-53
2021/01/11 09:07:03;;;;;;;24.48;15.43;;;;;;;1.84;100.00;101443.19;4986305;28;20035;-51
2021/01/11 09:09:31;;;;;;;28.60;16.88;;;;;;;1.88;100.00;101453.47;4986304;28;20415;-51
2021/01/11 09:12:04;;;;;;;26.25;16.05;;;;;;;1.94;100.00;101452.25;4986843;28;20049;-52
2021/01/11 09:14:31;;;;;;;28.73;15.45;;;;;;;1.93;100.00;101458.47;4981120;28;20427;-51
2021/01/11 09:17:03;;;;;;;24.98;14.77;;;;;;;1.97;100.00;101457.34;4989296;28;20046;-53
2021/01/11 09:19:32;;;;;;;23.73;15.07;;;;;;;2.00;100.00;101448.41;4986316;28;20523;-53
2021/01/11 09:22:02;;;;;;;27.33;15.45;;;;;;;2.17;100.00;101457.91;4983845;28;20042;-48
2021/01/11 09:24:30;;;;;;;23.58;15.07;;;;;;;2.10;100.00;101448.69;4984189;28;20039;-53
2021/01/11 09:26:57;;;;;;;25.13;14.07;;;;;;;2.12;100.00;101445.03;4983684;28;20045;-53
2021/01/11 09:29:24;;;;;;;25.67;14.05;;;;;;;2.21;100.00;101446.25;4987091;28;20061;-48
2021/01/11 09:31:51;;;;;;;24.70;14.23;;;;;;;2.28;100.00;101447.56;4983447;28;20120;-52
2021/01/11 09:34:19;;;;;;;22.63;13.45;;;;;;;2.32;100.00;101438.53;4982854;28;20047;-49
2021/01/11 09:36:47;;;;;;;25.50;16.15;;;;;;;2.33;100.00;101445.50;4986111;28;20050;-51
2021/01/11 09:39:15;;;;;;;27.90;15.15;;;;;;;2.31;100.00;101431.59;4985169;28;20035;-50
2021/01/11 09:41:46;;;;;;;27.25;15.50;;;;;;;2.27;100.00;101430.09;4986125;28;20132;-53
2021/01/11 09:44:13;;;;;;;23.73;14.80;;;;;;;2.46;100.00;101436.84;4976865;28;20042;-52
2021/01/11 09:46:42;;;;;;;25.73;16.00;;;;;;;2.26;100.00;101444.19;4985581;28;20050;-48
2021/01/11 09:49:09;;;;;;;22.20;14.40;;;;;;;2.21;100.00;101433.94;4987084;28;20461;-52
2021/01/11 09:51:36;;;;;;;23.55;14.27;;;;;;;2.32;100.00;101440.34;4983588;28;20057;-53
2021/01/11 09:54:04;;;;;;;26.45;14.40;;;;;;;2.37;100.00;101443.56;4984923;28;20095;-49
2021/01/11 09:56:31;;;;;;;28.80;15.48;;;;;;;2.32;100.00;101437.69;4987459;28;20042;-49
2021/01/11 09:58:58;;;;;;;26.10;14.70;;;;;;;2.37;100.00;101440.91;4979811;28;20064;-52
2021/01/11 10:01:24;;;;;;;29.02;14.45;;;;;;;2.51;100.00;101445.31;4992773;28;20046;-53
2021/01/11 10:03:52;;;;;;;28.92;16.23;;;;;;;2.46;100.00;101436.84;4982584;28;20360;-51
2021/01/11 10:06:18;;;;;;;27.42;15.27;;;;;;;2.58;100.00;101441.38;4983620;28;20062;-52
2021/01/11 10:08:45;;;;;;;28.27;15.75;;;;;;;2.56;100.00;101436.16;4981889;28;20034;-52
2021/01/11 10:11:14;;;;;;;31.20;17.50;;;;;;;2.56;100.00;101422.97;4984075;28;20055;-52
2021/01/11 10:13:42;;;;;;;26.65;16.10;;;;;;;2.64;100.00;101424.31;4978236;28;20042;-50
2021/01/11 10:16:09;;;;;;;28.23;16.35;;;;;;;2.79;100.00;101414.56;4978958;28;20051;-53
2021/01/11 10:18:37;;;;;;;27.90;15.82;;;;;;;2.58;100.00;101417.66;4976550;28;20597;-52
2021/01/11 10:21:04;;;;;;;27.63;15.88;;;;;;;2.68;100.00;101410.84;4981207;28;20049;-49
2021/01/11 10:23:31;;;;;;;34.85;18.20;;;;;;;2.68;100.00;101413.47;4982854;28;20042;-49
2021/01/11 10:25:59;;;;;;;26.35;16.17;;;;;;;2.57;100.00;101408.03;4985484;28;20050;-49
2021/01/11 10:28:27;;;;;;;27.08;15.93;;;;;;;2.66;100.00;101410.06;4984026;28;20352;-53
2021/01/11 10:30:55;;;;;;;42.92;16.58;;;;;;;2.69;100.00;101411.66;4978004;28;20039;-51
2021/01/11 10:33:22;;;;;;;30.35;16.60;;;;;;;2.65;100.00;101404.91;4986976;28;20066;-51
2021/01/11 10:35:55;;;;;;;30.00;15.90;;;;;;;2.61;100.00;101398.13;4970189;28;20061;-52
2021/01/11 10:38:23;;;;;;;23.88;16.25;;;;;;;2.66;100.00;101391.59;4980952;28;20039;-53
2021/01/11 10:40:52;;;;;;;28.27;15.88;;;;;;;2.77;100.00;101395.38;4984282;28;20046;-53
2021/01/11 10:43:19;;;;;;;29.70;16.30;;;;;;;2.83;100.00;101395.81;4980743;28;20049;-51
2021/01/11 10:45:46;;;;;;;31.13;15.95;;;;;;;2.77;100.00;101387.47;4986379;28;20436;-50
2021/01/11 10:48:13;;;;;;;27.13;17.52;;;;;;;2.72;100.00;101377.19;4977478;28;20193;-52
2021/01/11 10:50:40;;;;;;;27.42;15.93;;;;;;;2.90;100.00;101391.00;4975671;28;20137;-51
2021/01/11 10:53:07;;;;;;;29.92;15.80;;;;;;;3.00;99.85;101386.78;4982525;28;20057;-51
2021/01/11 10:55:34;;;;;;;27.52;15.77;;;;;;;3.20;99.84;101380.22;4985248;28;20186;-51
2021/01/11 10:58:01;;;;;;;26.38;16.27;;;;;;;3.56;98.71;101375.22;4982280;28;20057;-53
2021/01/11 11:00:28;;;;;;;24.92;15.73;;;;;;;3.60;97.73;101379.34;4982372;28;20050;-54
2021/01/11 11:02:56;;;;;;;30.67;16.27;;;;;;;3.67;98.13;101379.78;4981460;28;20039;-55
2021/01/11 11:05:23;;;;;;;25.27;15.38;;;;;;;3.93;97.01;101355.03;4986971;28;20045;-54
2021/01/11 11:07:52;;;;;;;27.88;15.85;;;;;;;4.11;95.99;101352.91;4987833;28;20389;-53
2021/01/11 11:10:19;;;;;;;30.45;16.85;;;;;;;4.24;95.61;101352.03;4982603;28;20039;-51
2021/01/11 11:12:46;;;;;;;26.80;16.73;;;;;;;3.79;95.61;101352.53;4977836;28;20047;-53
2021/01/11 11:15:14;;;;;;;28.67;16.70;;;;;;;3.74;96.24;101357.25;4981363;28;20066;-51
2021/01/11 11:17:41;;;;;;;27.90;16.85;;;;;;;3.66;96.58;101354.28;4980858;28;20039;-54
2021/01/11 11:20:10;;;;;;;30.30;17.80;;;;;;;3.50;97.38;101358.00;4979790;28;20098;-50